createdAt,value
2022-12-01T00:01:18.515Z,17.25
2022-12-01T00:03:45.880Z,19.00
2022-12-01T00:06:15.714Z,18.50
2022-12-01T00:08:43.919Z,17.77
2022-12-01T00:11:12.061Z,19.52
2022-12-01T00:13:40.708Z,19.20
2022-12-01T00:16:12.081Z,15.65
2022-12-01T00:18:39.506Z,18.23
2022-12-01T00:21:14.045Z,13.45
2022-12-01T00:23:43.874Z,15.40
2022-12-01T00:26:11.667Z,13.38
2022-12-01T00:28:40.350Z,14.38
2022-12-01T00:31:08.833Z,12.45
2022-12-01T00:33:36.404Z,14.90
2022-12-01T00:36:05.617Z,10.20
2022-12-01T00:38:33.146Z,14.32
2022-12-01T00:41:00.904Z,17.17
2022-12-01T00:43:28.221Z,11.60
2022-12-01T00:45:57.624Z,18.60
2022-12-01T00:48:25.517Z,18.98
2022-12-01T00:50:54.965Z,17.67
2022-12-01T00:53:22.327Z,19.00
2022-12-01T00:55:50.231Z,13.18
2022-12-01T00:58:17.633Z,17.33
2022-12-01T01:00:45.260Z,14.32
2022-12-01T01:03:13.908Z,14.43
2022-12-01T01:05:43.175Z,14.82
2022-12-01T01:08:11.993Z,15.88
2022-12-01T01:10:40.655Z,15.55
2022-12-01T01:13:08.063Z,16.17
2022-12-01T01:15:36.019Z,14.30
2022-12-01T01:18:03.869Z,16.08
2022-12-01T01:20:34.930Z,15.20
2022-12-01T01:23:02.371Z,14.00
2022-12-01T01:25:32.093Z,15.43
2022-12-01T01:27:59.285Z,13.32
2022-12-01T01:30:27.031Z,13.35
2022-12-01T01:32:54.356Z,14.18
2022-12-01T01:35:21.986Z,14.90
2022-12-01T01:37:50.701Z,15.25
2022-12-01T01:40:18.982Z,14.43
2022-12-01T01:42:46.464Z,13.18
2022-12-01T01:45:20.747Z,11.68
2022-12-01T01:47:50.697Z,14.75
2022-12-01T01:50:22.329Z,13.98
2022-12-01T01:52:55.851Z,10.35
2022-12-01T01:55:23.935Z,9.70
2022-12-01T01:57:51.578Z,13.50
2022-12-01T02:00:20.468Z,15.38
2022-12-01T02:02:49.318Z,13.38
2022-12-01T02:05:20.595Z,14.25
2022-12-01T02:07:48.622Z,16.00
2022-12-01T02:10:18.928Z,13.77
2022-12-01T02:13:05.834Z,14.38
2022-12-01T02:15:41.230Z,10.93
2022-12-01T02:18:23.176Z,13.27
2022-12-01T02:21:28.431Z,13.90
2022-12-01T02:24:37.299Z,13.32
2022-12-01T02:27:12.800Z,12.93
2022-12-01T02:30:09.177Z,11.93
2022-12-01T02:32:49.409Z,15.93
2022-12-01T02:35:24.544Z,10.57
2022-12-01T02:38:03.576Z,14.90
2022-12-01T02:40:36.893Z,13.60
2022-12-01T02:43:13.076Z,14.10
2022-12-01T02:45:47.869Z,11.63
2022-12-01T02:48:22.794Z,13.70
2022-12-01T02:50:52.824Z,12.15
2022-12-01T02:53:22.577Z,11.80
2022-12-01T02:55:52.199Z,16.90
2022-12-01T02:58:20.891Z,11.95
2022-12-01T03:01:10.788Z,14.80
2022-12-01T03:03:55.989Z,15.32
2022-12-01T03:06:33.851Z,13.68
2022-12-01T03:09:10.073Z,11.50
2022-12-01T03:11:44.522Z,14.20
2022-12-01T03:14:23.485Z,12.90
2022-12-01T03:16:53.135Z,14.75
2022-12-01T03:19:29.689Z,12.40
2022-12-01T03:22:04.725Z,14.10
2022-12-01T03:24:34.960Z,15.35
2022-12-01T03:27:03.884Z,17.23
2022-12-01T03:29:34.972Z,17.52
2022-12-01T03:32:07.372Z,17.88
2022-12-01T03:34:41.241Z,14.80
2022-12-01T03:39:40.001Z,14.38
2022-12-01T03:42:13.516Z,14.52
2022-12-01T03:44:46.859Z,15.00
2022-12-01T03:47:18.359Z,15.27
2022-12-01T03:49:50.884Z,16.60
2022-12-01T03:52:30.419Z,15.55
2022-12-01T03:55:07.516Z,16.65
2022-12-01T03:57:41.317Z,16.40
2022-12-01T04:00:10.702Z,16.30
2022-12-01T04:02:38.454Z,19.23
2022-12-01T04:05:08.432Z,14.95
2022-12-01T04:07:35.859Z,16.17
2022-12-01T04:10:04.252Z,15.82
2022-12-01T04:12:31.520Z,16.67
2022-12-01T04:15:00.775Z,15.02
2022-12-01T04:17:29.123Z,16.05
2022-12-01T04:19:56.926Z,15.45
2022-12-01T04:22:26.650Z,15.38
2022-12-01T04:24:54.338Z,14.82
2022-12-01T04:27:21.828Z,13.57
2022-12-01T04:29:50.152Z,14.88
2022-12-01T04:32:17.634Z,14.80
2022-12-01T04:34:45.515Z,13.63
2022-12-01T04:37:12.906Z,13.98
2022-12-01T04:39:42.534Z,13.85
2022-12-01T04:42:10.638Z,16.33
2022-12-01T04:44:38.956Z,13.82
2022-12-01T04:47:07.053Z,15.15
2022-12-01T04:49:35.384Z,15.07
2022-12-01T04:52:02.871Z,16.38
2022-12-01T04:54:30.663Z,14.63
2022-12-01T04:56:59.283Z,15.88
2022-12-01T04:59:27.370Z,14.02
2022-12-01T05:01:54.704Z,15.15
2022-12-01T05:04:22.798Z,16.35
2022-12-01T05:06:50.359Z,15.45
2022-12-01T05:09:18.181Z,15.57
2022-12-01T05:11:45.507Z,14.00
2022-12-01T05:14:14.847Z,15.65
2022-12-01T05:16:42.593Z,14.95
2022-12-01T05:19:10.467Z,17.63
2022-12-01T05:21:37.935Z,15.85
2022-12-01T05:24:06.644Z,18.40
2022-12-01T05:26:34.103Z,16.60
2022-12-01T05:29:02.555Z,15.93
2022-12-01T05:31:31.624Z,16.42
2022-12-01T05:34:00.249Z,16.02
2022-12-01T05:36:27.839Z,15.15
2022-12-01T05:38:55.890Z,14.93
2022-12-01T05:41:23.153Z,16.05
2022-12-01T05:43:51.084Z,14.60
2022-12-01T05:46:18.592Z,16.67
2022-12-01T05:48:48.078Z,15.57
2022-12-01T05:51:16.915Z,15.77
2022-12-01T05:53:44.923Z,15.05
2022-12-01T05:56:12.417Z,15.57
2022-12-01T05:58:40.126Z,16.23
2022-12-01T06:01:07.724Z,15.38
2022-12-01T06:03:35.329Z,14.73
2022-12-01T06:06:04.900Z,15.50
2022-12-01T06:08:32.371Z,14.93
2022-12-01T06:11:00.277Z,15.60
2022-12-01T06:13:30.955Z,14.00
2022-12-01T06:15:59.969Z,15.45
2022-12-01T06:18:28.200Z,14.27
2022-12-01T06:20:56.006Z,16.20
2022-12-01T06:23:30.022Z,15.48
2022-12-01T06:25:58.442Z,14.32
2022-12-01T06:28:25.661Z,14.93
2022-12-01T06:30:57.831Z,14.95
2022-12-01T06:33:28.663Z,16.05
2022-12-01T06:35:59.793Z,15.18
2022-12-01T06:38:31.619Z,15.38
2022-12-01T06:41:00.189Z,15.15
2022-12-01T06:43:27.941Z,17.25
2022-12-01T06:46:01.307Z,15.75
2022-12-01T06:48:29.761Z,17.30
2022-12-01T06:50:58.202Z,15.27
2022-12-01T06:53:25.745Z,15.70
2022-12-01T06:55:55.123Z,15.60
2022-12-01T06:58:22.825Z,16.58
2022-12-01T07:00:52.415Z,15.75
2022-12-01T07:03:19.989Z,15.80
2022-12-01T07:05:55.380Z,16.20
2022-12-01T07:08:22.716Z,16.88
2022-12-01T07:10:59.399Z,14.82
2022-12-01T07:13:32.853Z,16.38
2022-12-01T07:16:02.426Z,17.50
2022-12-01T07:18:29.931Z,17.23
2022-12-01T07:21:00.213Z,15.55
2022-12-01T07:23:27.993Z,15.90
2022-12-01T07:26:01.328Z,16.27
2022-12-01T07:28:28.815Z,17.20
2022-12-01T07:31:02.130Z,16.27
2022-12-01T07:33:29.896Z,16.77
2022-12-01T07:35:58.334Z,17.92
2022-12-01T07:38:27.493Z,18.15
2022-12-01T07:40:55.114Z,16.48
2022-12-01T07:43:23.913Z,19.38
2022-12-01T07:45:51.705Z,18.25
2022-12-01T07:48:19.050Z,16.92
2022-12-01T07:50:47.035Z,16.38
2022-12-01T07:53:20.609Z,16.15
2022-12-01T07:55:49.424Z,17.45
2022-12-01T07:58:16.608Z,16.77
2022-12-01T08:00:46.237Z,16.85
2022-12-01T08:03:13.918Z,16.60
2022-12-01T08:05:41.885Z,16.35
2022-12-01T08:08:09.563Z,17.35
2022-12-01T08:10:37.751Z,16.77
2022-12-01T08:13:05.347Z,16.25
2022-12-01T08:15:33.260Z,16.25
2022-12-01T08:18:02.550Z,16.27
2022-12-01T08:20:30.401Z,16.63
2022-12-01T08:23:00.500Z,18.98
2022-12-01T08:25:28.751Z,17.27
2022-12-01T08:27:56.844Z,16.40
2022-12-01T08:30:24.926Z,17.58
2022-12-01T08:32:53.718Z,18.65
2022-12-01T08:35:23.355Z,17.13
2022-12-01T08:37:52.079Z,17.85
2022-12-01T08:40:19.988Z,17.77
2022-12-01T08:42:47.328Z,16.73
2022-12-01T08:45:15.435Z,17.77
2022-12-01T08:47:42.723Z,18.58
2022-12-01T08:50:10.645Z,17.98
2022-12-01T08:52:39.519Z,17.08
2022-12-01T08:55:10.749Z,19.10
2022-12-01T08:57:38.037Z,18.33
2022-12-01T09:00:06.978Z,18.08
2022-12-01T09:02:34.805Z,18.60
2022-12-01T09:05:03.569Z,20.35
2022-12-01T09:07:31.354Z,19.67
2022-12-01T09:10:00.681Z,19.10
2022-12-01T09:12:29.545Z,18.92
2022-12-01T09:14:57.302Z,16.17
2022-12-01T09:17:24.666Z,19.15
2022-12-01T09:19:52.703Z,19.00
2022-12-01T09:22:20.158Z,18.10
2022-12-01T09:24:47.941Z,15.95
2022-12-01T09:27:16.593Z,17.25
2022-12-01T09:29:44.295Z,18.17
2022-12-01T09:32:11.514Z,18.45
2022-12-01T09:34:39.201Z,17.33
2022-12-01T09:37:06.504Z,17.95
2022-12-01T09:39:34.157Z,18.27
2022-12-01T09:42:09.026Z,17.48
2022-12-01T09:44:43.966Z,18.60
2022-12-01T09:47:18.081Z,17.10
2022-12-01T09:49:53.009Z,17.67
2022-12-01T09:52:21.898Z,17.67
2022-12-01T09:54:49.969Z,17.98
2022-12-01T09:57:28.502Z,17.25
2022-12-01T09:59:59.249Z,18.73
2022-12-01T10:02:33.286Z,17.75
2022-12-01T10:05:04.959Z,18.48
2022-12-01T10:07:36.822Z,17.65
2022-12-01T10:10:12.079Z,16.90
2022-12-01T10:12:43.441Z,16.80
2022-12-01T10:15:30.072Z,17.98
2022-12-01T10:18:07.971Z,17.35
2022-12-01T10:20:44.978Z,17.38
2022-12-01T10:23:31.558Z,18.30
2022-12-01T10:26:03.741Z,17.70
2022-12-01T10:28:53.954Z,17.83
2022-12-01T10:31:31.293Z,16.05
2022-12-01T10:34:01.693Z,17.23
2022-12-01T10:36:32.930Z,16.77
2022-12-01T10:39:02.020Z,16.73
2022-12-01T10:41:33.988Z,17.85
2022-12-01T10:44:04.970Z,16.48
2022-12-01T10:46:41.045Z,17.73
2022-12-01T10:49:10.439Z,16.55
2022-12-01T10:51:51.365Z,16.52
2022-12-01T10:54:19.860Z,17.92
2022-12-01T10:56:49.795Z,15.98
2022-12-01T10:59:26.937Z,16.38
2022-12-01T11:01:58.347Z,17.88
2022-12-01T11:04:36.380Z,16.90
2022-12-01T11:07:04.555Z,17.05
2022-12-01T11:09:32.497Z,17.63
2022-12-01T11:12:15.896Z,18.38
2022-12-01T11:14:47.432Z,19.00
2022-12-01T11:17:29.610Z,17.42
2022-12-01T11:19:57.315Z,17.52
2022-12-01T11:22:27.746Z,18.88
2022-12-01T11:25:01.510Z,19.38
2022-12-01T11:27:32.813Z,17.23
2022-12-01T11:30:02.607Z,17.35
2022-12-01T11:32:35.174Z,17.65
2022-12-01T11:35:06.282Z,18.25
2022-12-01T11:37:39.295Z,17.80
2022-12-01T11:40:13.683Z,17.92
2022-12-01T11:42:42.308Z,16.90
2022-12-01T11:45:27.840Z,17.42
2022-12-01T11:48:02.720Z,17.40
2022-12-01T11:50:32.431Z,19.35
2022-12-01T11:53:00.415Z,17.75
2022-12-01T11:55:31.636Z,17.40
2022-12-01T11:58:02.806Z,18.77
2022-12-01T12:00:41.980Z,17.85
2022-12-01T12:03:21.293Z,16.15
2022-12-01T12:06:31.853Z,17.95
2022-12-01T12:09:03.424Z,18.52
2022-12-01T12:11:43.480Z,17.95
2022-12-01T12:14:29.967Z,17.25
2022-12-01T12:17:18.998Z,16.75
2022-12-01T12:20:27.836Z,13.20
2022-12-01T12:23:05.953Z,14.57
2022-12-01T12:25:47.312Z,12.20
2022-12-01T12:28:27.629Z,11.75
2022-12-01T12:31:08.245Z,8.02
2022-12-01T12:33:53.375Z,10.25
2022-12-01T12:36:32.639Z,8.95
2022-12-01T12:39:16.355Z,8.68
2022-12-01T12:41:46.352Z,11.13
2022-12-01T12:44:32.366Z,10.82
2022-12-01T12:47:09.981Z,9.57
2022-12-01T12:49:44.587Z,9.98
2022-12-01T12:52:18.727Z,10.13
2022-12-01T12:54:50.727Z,10.60
2022-12-01T12:57:29.552Z,9.88
2022-12-01T13:00:02.284Z,10.55
2022-12-01T13:02:36.415Z,11.35
2022-12-01T13:05:09.998Z,10.73
2022-12-01T13:07:44.976Z,10.13
2022-12-01T13:10:22.281Z,11.00
2022-12-01T13:12:56.888Z,10.57
2022-12-01T13:15:25.548Z,10.30
2022-12-01T13:17:57.588Z,10.40
2022-12-01T13:20:28.197Z,10.38
2022-12-01T13:23:00.117Z,10.75
2022-12-01T13:25:31.243Z,11.07
2022-12-01T13:28:02.490Z,9.98
2022-12-01T13:30:30.121Z,10.63
2022-12-01T13:33:00.840Z,10.10
2022-12-01T13:35:31.255Z,12.02
2022-12-01T13:41:14.913Z,12.05
2022-12-01T13:43:53.344Z,10.00
2022-12-01T13:46:26.027Z,9.15
2022-12-01T13:48:55.608Z,14.00
2022-12-01T13:51:23.278Z,11.45
2022-12-01T13:53:58.492Z,11.52
2022-12-01T13:56:39.481Z,12.52
2022-12-01T13:59:40.687Z,10.63
2022-12-01T14:02:16.497Z,9.77
2022-12-01T14:04:44.721Z,8.85
2022-12-01T14:07:35.323Z,10.23
2022-12-01T14:10:25.952Z,11.55
2022-12-01T14:12:58.083Z,10.10
2022-12-01T14:15:36.009Z,11.73
2022-12-01T14:18:20.164Z,10.43
2022-12-01T14:20:49.444Z,10.82
2022-12-01T14:23:23.404Z,10.20
2022-12-01T14:26:01.797Z,9.63
2022-12-01T14:29:19.677Z,8.73
2022-12-01T14:32:19.824Z,9.98
2022-12-01T14:34:52.780Z,9.25
2022-12-01T14:37:25.016Z,10.98
2022-12-01T14:39:57.681Z,10.13
2022-12-01T14:42:33.370Z,8.63
2022-12-01T14:45:04.068Z,8.40
2022-12-01T14:47:42.668Z,11.13
2022-12-01T14:52:47.323Z,10.02
2022-12-01T14:55:18.724Z,11.27
2022-12-01T14:57:49.725Z,9.60
2022-12-01T15:00:20.067Z,11.45
2022-12-01T15:02:54.014Z,10.65
2022-12-01T15:05:24.649Z,12.45
2022-12-01T15:08:06.707Z,10.13
2022-12-01T15:10:50.355Z,12.30
2022-12-01T15:13:23.239Z,9.60
2022-12-01T15:15:52.567Z,11.75
2022-12-01T15:18:29.043Z,12.80
2022-12-01T15:21:00.727Z,13.35
2022-12-01T15:23:28.826Z,11.93
2022-12-01T15:25:56.344Z,13.07
2022-12-01T15:28:31.517Z,12.98
2022-12-01T15:31:00.435Z,12.93
2022-12-01T15:33:36.765Z,11.43
2022-12-01T15:36:06.944Z,12.32
2022-12-01T15:38:37.053Z,12.88
2022-12-01T15:41:28.629Z,11.65
2022-12-01T15:43:56.803Z,6.97
2022-12-01T15:46:31.198Z,8.90
2022-12-01T15:49:18.418Z,6.38
2022-12-01T15:51:46.951Z,10.32
2022-12-01T15:54:20.965Z,9.90
2022-12-01T15:56:53.409Z,9.45
2022-12-01T15:59:33.383Z,11.07
2022-12-01T16:02:07.094Z,10.75
2022-12-01T16:04:36.985Z,11.85
2022-12-01T16:07:07.233Z,12.13
2022-12-01T16:09:36.724Z,11.77
2022-12-01T16:12:20.853Z,12.07
2022-12-01T16:14:54.674Z,11.45
2022-12-01T16:17:23.193Z,10.55
2022-12-01T16:20:16.682Z,10.25
2022-12-01T16:22:46.177Z,9.93
2022-12-01T16:25:18.974Z,9.13
2022-12-01T16:27:54.679Z,9.60
2022-12-01T16:30:25.066Z,10.82
2022-12-01T16:33:01.356Z,9.05
2022-12-01T16:35:32.003Z,9.63
2022-12-01T16:38:00.544Z,9.52
2022-12-01T16:40:28.340Z,11.18
2022-12-01T16:42:55.789Z,10.52
2022-12-01T16:45:24.112Z,11.23
2022-12-01T16:47:51.515Z,9.32
2022-12-01T16:50:21.696Z,11.20
2022-12-01T16:52:50.342Z,10.38
2022-12-01T16:55:36.445Z,10.57
2022-12-01T17:00:31.858Z,10.60
2022-12-01T17:02:59.994Z,9.43
2022-12-01T17:05:27.899Z,10.10
2022-12-01T17:07:56.768Z,11.05
2022-12-01T17:10:24.858Z,10.40
2022-12-01T17:12:52.448Z,10.55
2022-12-01T17:15:20.484Z,11.40
2022-12-01T17:17:47.842Z,10.90
2022-12-01T17:20:16.120Z,11.40
2022-12-01T17:22:43.784Z,11.18
2022-12-01T17:25:13.023Z,10.20
2022-12-01T17:27:40.434Z,10.68
2022-12-01T17:30:12.167Z,12.48
2022-12-01T17:32:39.475Z,12.27
2022-12-01T17:35:08.163Z,11.95
2022-12-01T17:37:35.665Z,11.90
2022-12-01T17:40:03.858Z,12.60
2022-12-01T17:42:33.554Z,14.10
2022-12-01T17:45:01.643Z,11.05
2022-12-01T17:47:29.442Z,13.85
2022-12-01T17:49:57.360Z,11.00
2022-12-01T17:52:28.330Z,13.02
2022-12-01T17:54:56.689Z,13.88
2022-12-01T17:57:24.524Z,11.65
2022-12-01T17:59:53.781Z,12.23
2022-12-01T18:02:21.309Z,11.75
2022-12-01T18:04:49.923Z,11.52
2022-12-01T18:07:17.771Z,12.68
2022-12-01T18:09:45.854Z,10.23
2022-12-01T18:12:13.609Z,11.98
2022-12-01T18:14:41.717Z,11.93
2022-12-01T18:17:10.819Z,12.98
2022-12-01T18:19:38.933Z,14.05
2022-12-01T18:22:06.491Z,14.18
2022-12-01T18:24:34.769Z,15.27
2022-12-01T18:27:02.094Z,13.75
2022-12-01T18:29:29.932Z,15.07
2022-12-01T18:31:58.844Z,14.45
2022-12-01T18:34:28.820Z,12.80
2022-12-01T18:36:56.715Z,11.85
2022-12-01T18:39:24.650Z,13.50
2022-12-01T18:41:51.986Z,12.85
2022-12-01T18:44:19.603Z,11.13
2022-12-01T18:46:47.554Z,9.18
2022-12-01T18:49:16.035Z,10.60
2022-12-01T18:51:45.064Z,10.35
2022-12-01T18:54:14.565Z,10.77
2022-12-01T18:56:42.504Z,12.32
2022-12-01T18:59:11.712Z,10.63
2022-12-01T19:01:41.302Z,11.73
2022-12-01T19:04:10.117Z,12.77
2022-12-01T19:06:39.452Z,12.60
2022-12-01T19:09:10.911Z,10.73
2022-12-01T19:11:39.526Z,11.00
2022-12-01T19:14:08.279Z,13.30
2022-12-01T19:16:35.774Z,12.35
2022-12-01T19:19:04.161Z,11.05
2022-12-01T19:21:31.613Z,11.10
2022-12-01T19:23:59.489Z,9.02
2022-12-01T19:26:28.302Z,7.65
2022-12-01T19:28:56.092Z,10.10
2022-12-01T19:31:24.889Z,10.18
2022-12-01T19:33:54.004Z,10.30
2022-12-01T19:36:23.453Z,10.48
2022-12-01T19:38:51.780Z,10.18
2022-12-01T19:41:20.247Z,9.70
2022-12-01T19:43:49.531Z,9.85
2022-12-01T19:46:19.281Z,9.77
2022-12-01T19:48:47.873Z,8.10
2022-12-01T19:51:19.765Z,8.20
2022-12-01T19:53:47.875Z,9.10
2022-12-01T19:56:15.372Z,8.75
2022-12-01T19:58:43.694Z,8.55
2022-12-01T20:01:14.448Z,9.27
2022-12-01T20:03:44.668Z,8.90
2022-12-01T20:06:14.126Z,8.10
2022-12-01T20:08:42.628Z,8.98
2022-12-01T20:11:10.660Z,9.80
2022-12-01T20:13:40.827Z,9.43
2022-12-01T20:16:10.609Z,10.25
2022-12-01T20:18:40.985Z,10.27
2022-12-01T20:21:10.739Z,9.57
2022-12-01T20:23:39.115Z,10.27
2022-12-01T20:26:07.877Z,10.73
2022-12-01T20:28:37.147Z,10.90
2022-12-01T20:31:09.850Z,7.53
2022-12-01T20:33:41.245Z,9.52
2022-12-01T20:36:09.379Z,8.30
2022-12-01T20:38:38.270Z,8.23
2022-12-01T20:41:07.136Z,7.88
2022-12-01T20:43:35.848Z,7.57
2022-12-01T20:46:06.612Z,8.07
2022-12-01T20:48:34.726Z,8.82
2022-12-01T20:51:05.771Z,10.98
2022-12-01T20:53:34.697Z,8.50
2022-12-01T20:56:03.477Z,9.35
2022-12-01T20:58:37.034Z,9.60
2022-12-01T21:01:08.396Z,8.77
2022-12-01T21:03:38.128Z,7.65
2022-12-01T21:06:07.543Z,9.10
2022-12-01T21:08:37.458Z,9.05
2022-12-01T21:11:06.405Z,10.18
2022-12-01T21:13:35.273Z,8.75
2022-12-01T21:16:07.020Z,6.97
2022-12-01T21:18:42.362Z,8.10
2022-12-01T21:21:21.464Z,7.88
2022-12-01T21:24:00.185Z,7.53
2022-12-01T21:26:27.455Z,8.65
2022-12-01T21:28:59.064Z,8.23
2022-12-01T21:31:26.920Z,9.43
2022-12-01T21:33:56.180Z,8.32
2022-12-01T21:36:29.024Z,9.23
2022-12-01T21:39:12.893Z,7.72
2022-12-01T21:41:40.436Z,9.32
2022-12-01T21:44:13.710Z,9.95
2022-12-01T21:49:18.094Z,7.15
2022-12-01T21:51:47.890Z,7.18
2022-12-01T21:54:19.726Z,7.65
2022-12-01T21:56:48.618Z,6.50
2022-12-01T21:59:19.586Z,7.25
2022-12-01T22:01:48.176Z,7.78
2022-12-01T22:04:18.907Z,7.45
2022-12-01T22:06:49.830Z,7.93
2022-12-01T22:09:24.723Z,8.20
2022-12-01T22:11:54.592Z,7.55
2022-12-01T22:14:24.236Z,7.10
2022-12-01T22:16:56.838Z,6.78
2022-12-01T22:19:30.855Z,8.05
2022-12-01T22:22:03.537Z,8.52
2022-12-01T22:24:40.454Z,7.00
2022-12-01T22:27:29.977Z,5.78
2022-12-01T22:30:00.592Z,8.77
2022-12-01T22:32:41.286Z,6.63
2022-12-01T22:35:28.581Z,7.00
2022-12-01T22:38:13.708Z,6.47
2022-12-01T22:40:48.496Z,6.85
2022-12-01T22:43:41.654Z,8.18
2022-12-01T22:46:23.534Z,7.00
2022-12-01T22:48:53.059Z,7.97
2022-12-01T22:51:37.283Z,8.10
2022-12-01T22:54:28.966Z,8.40
2022-12-01T22:57:11.803Z,6.55
2022-12-01T22:59:42.129Z,9.10
2022-12-01T23:02:20.524Z,8.05
2022-12-01T23:04:51.023Z,7.05
2022-12-01T23:07:38.379Z,9.02
2022-12-01T23:10:17.932Z,8.07
2022-12-01T23:12:47.675Z,7.43
2022-12-01T23:15:32.419Z,7.03
2022-12-01T23:18:11.835Z,8.13
2022-12-01T23:20:40.737Z,7.68
2022-12-01T23:23:14.799Z,7.68
2022-12-01T23:25:44.748Z,7.75
2022-12-01T23:28:15.533Z,9.15
2022-12-01T23:30:51.185Z,8.40
2022-12-01T23:33:21.486Z,7.95
2022-12-01T23:35:53.814Z,6.85
2022-12-01T23:38:23.988Z,7.38
2022-12-01T23:41:00.575Z,8.38
2022-12-01T23:43:31.953Z,7.50
2022-12-01T23:46:04.309Z,7.75
2022-12-01T23:48:36.488Z,7.93
2022-12-01T23:51:05.038Z,8.77
2022-12-01T23:53:33.567Z,7.30
2022-12-01T23:56:05.373Z,7.65
2022-12-01T23:58:34.602Z,8.18
